Webcam

2020/02/27 00:20 EBBR 270020Z 23008KT CAVOK 03/01 Q1007 NOSIG

Webcam

--- Refresh now ---